sensor_id;sensor_type;location;lat;lon;timestamp;P1;durP1;ratioP1;P2;durP2;ratioP2
20865;SDS011;10593;48.398;10.698;2023-04-15T00:01:20;2.03;;;1.90;;
20865;SDS011;10593;48.398;10.698;2023-04-15T00:03:46;1.67;;;1.57;;
20865;SDS011;10593;48.398;10.698;2023-04-15T00:06:12;1.80;;;1.70;;
20865;SDS011;10593;48.398;10.698;2023-04-15T00:08:38;1.77;;;1.67;;
20865;SDS011;10593;48.398;10.698;2023-04-15T00:11:05;1.50;;;1.40;;
20865;SDS011;10593;48.398;10.698;2023-04-15T00:13:31;1.77;;;1.67;;
20865;SDS011;10593;48.398;10.698;2023-04-15T00:15:58;1.53;;;1.43;;
20865;SDS011;10593;48.398;10.698;2023-04-15T00:18:23;1.60;;;1.50;;
20865;SDS011;10593;48.398;10.698;2023-04-15T00:20:50;1.73;;;1.63;;
20865;SDS011;10593;48.398;10.698;2023-04-15T00:23:16;1.50;;;1.40;;
20865;SDS011;10593;48.398;10.698;2023-04-15T00:25:42;1.43;;;1.33;;
20865;SDS011;10593;48.398;10.698;2023-04-15T00:28:07;1.53;;;1.43;;
20865;SDS011;10593;48.398;10.698;2023-04-15T00:30:33;1.57;;;1.47;;
20865;SDS011;10593;48.398;10.698;2023-04-15T00:32:59;1.57;;;1.50;;
20865;SDS011;10593;48.398;10.698;2023-04-15T00:35:26;1.60;;;1.50;;
20865;SDS011;10593;48.398;10.698;2023-04-15T00:37:52;1.40;;;1.40;;
20865;SDS011;10593;48.398;10.698;2023-04-15T00:40:18;2.03;;;1.70;;
20865;SDS011;10593;48.398;10.698;2023-04-15T00:42:45;1.60;;;1.50;;
20865;SDS011;10593;48.398;10.698;2023-04-15T00:45:12;1.57;;;1.47;;
20865;SDS011;10593;48.398;10.698;2023-04-15T00:47:38;1.70;;;1.60;;
20865;SDS011;10593;48.398;10.698;2023-04-15T00:50:07;1.93;;;1.83;;
20865;SDS011;10593;48.398;10.698;2023-04-15T00:52:34;1.73;;;1.63;;
20865;SDS011;10593;48.398;10.698;2023-04-15T00:55:00;1.93;;;1.83;;
20865;SDS011;10593;48.398;10.698;2023-04-15T00:57:26;1.90;;;1.70;;
20865;SDS011;10593;48.398;10.698;2023-04-15T00:59:53;2.33;;;1.70;;
20865;SDS011;10593;48.398;10.698;2023-04-15T01:02:21;1.90;;;1.80;;
20865;SDS011;10593;48.398;10.698;2023-04-15T01:04:47;1.50;;;1.40;;
20865;SDS011;10593;48.398;10.698;2023-04-15T01:07:14;1.90;;;1.80;;
20865;SDS011;10593;48.398;10.698;2023-04-15T01:09:40;1.63;;;1.30;;
20865;SDS011;10593;48.398;10.698;2023-04-15T01:12:06;1.40;;;1.30;;
20865;SDS011;10593;48.398;10.698;2023-04-15T01:14:35;1.63;;;1.53;;
20865;SDS011;10593;48.398;10.698;2023-04-15T01:17:01;1.70;;;1.60;;
20865;SDS011;10593;48.398;10.698;2023-04-15T01:19:27;1.80;;;1.70;;
20865;SDS011;10593;48.398;10.698;2023-04-15T01:21:53;1.73;;;1.63;;
20865;SDS011;10593;48.398;10.698;2023-04-15T01:24:20;1.97;;;1.43;;
20865;SDS011;10593;48.398;10.698;2023-04-15T01:26:47;1.70;;;1.60;;
20865;SDS011;10593;48.398;10.698;2023-04-15T01:29:13;1.70;;;1.40;;
20865;SDS011;10593;48.398;10.698;2023-04-15T01:31:39;1.70;;;1.60;;
20865;SDS011;10593;48.398;10.698;2023-04-15T01:34:05;1.30;;;1.30;;
20865;SDS011;10593;48.398;10.698;2023-04-15T01:36:30;1.23;;;1.20;;
20865;SDS011;10593;48.398;10.698;2023-04-15T01:38:56;1.20;;;1.20;;
20865;SDS011;10593;48.398;10.698;2023-04-15T01:41:26;1.50;;;1.40;;
20865;SDS011;10593;48.398;10.698;2023-04-15T01:43:52;1.40;;;1.30;;
20865;SDS011;10593;48.398;10.698;2023-04-15T01:46:19;1.50;;;1.40;;
20865;SDS011;10593;48.398;10.698;2023-04-15T01:48:44;1.67;;;1.57;;
20865;SDS011;10593;48.398;10.698;2023-04-15T01:51:11;1.60;;;1.50;;
20865;SDS011;10593;48.398;10.698;2023-04-15T01:53:36;2.00;;;1.80;;
20865;SDS011;10593;48.398;10.698;2023-04-15T01:56:02;1.87;;;1.77;;
20865;SDS011;10593;48.398;10.698;2023-04-15T01:58:28;1.50;;;1.50;;
20865;SDS011;10593;48.398;10.698;2023-04-15T02:00:54;1.50;;;1.43;;
20865;SDS011;10593;48.398;10.698;2023-04-15T02:03:20;1.70;;;1.60;;
20865;SDS011;10593;48.398;10.698;2023-04-15T02:05:46;1.90;;;1.80;;
20865;SDS011;10593;48.398;10.698;2023-04-15T02:08:11;1.83;;;1.73;;
20865;SDS011;10593;48.398;10.698;2023-04-15T02:10:37;1.80;;;1.70;;
20865;SDS011;10593;48.398;10.698;2023-04-15T02:13:03;1.90;;;1.80;;
20865;SDS011;10593;48.398;10.698;2023-04-15T02:15:29;1.90;;;1.80;;
20865;SDS011;10593;48.398;10.698;2023-04-15T02:17:55;2.20;;;2.10;;
20865;SDS011;10593;48.398;10.698;2023-04-15T02:20:20;2.37;;;1.87;;
20865;SDS011;10593;48.398;10.698;2023-04-15T02:22:47;2.50;;;2.00;;
20865;SDS011;10593;48.398;10.698;2023-04-15T02:25:13;2.17;;;2.00;;
20865;SDS011;10593;48.398;10.698;2023-04-15T02:27:41;2.00;;;1.90;;
20865;SDS011;10593;48.398;10.698;2023-04-15T02:30:08;1.40;;;1.30;;
20865;SDS011;10593;48.398;10.698;2023-04-15T02:32:34;1.70;;;1.53;;
20865;SDS011;10593;48.398;10.698;2023-04-15T02:35:05;1.23;;;1.23;;
20865;SDS011;10593;48.398;10.698;2023-04-15T02:37:33;1.43;;;1.40;;
20865;SDS011;10593;48.398;10.698;2023-04-15T02:40:05;1.70;;;1.60;;
20865;SDS011;10593;48.398;10.698;2023-04-15T02:42:40;1.90;;;1.80;;
20865;SDS011;10593;48.398;10.698;2023-04-15T02:45:08;2.07;;;1.80;;
20865;SDS011;10593;48.398;10.698;2023-04-15T02:47:36;1.53;;;1.43;;
20865;SDS011;10593;48.398;10.698;2023-04-15T02:50:06;1.73;;;1.63;;
20865;SDS011;10593;48.398;10.698;2023-04-15T02:52:33;2.23;;;1.80;;
20865;SDS011;10593;48.398;10.698;2023-04-15T02:54:59;1.93;;;1.70;;
20865;SDS011;10593;48.398;10.698;2023-04-15T02:57:26;2.40;;;2.30;;
20865;SDS011;10593;48.398;10.698;2023-04-15T02:59:53;2.00;;;1.90;;
20865;SDS011;10593;48.398;10.698;2023-04-15T03:02:19;2.17;;;2.07;;
20865;SDS011;10593;48.398;10.698;2023-04-15T03:04:45;2.03;;;1.93;;
20865;SDS011;10593;48.398;10.698;2023-04-15T03:07:10;2.50;;;2.00;;
20865;SDS011;10593;48.398;10.698;2023-04-15T03:09:36;1.80;;;1.70;;
20865;SDS011;10593;48.398;10.698;2023-04-15T03:12:04;1.80;;;1.70;;
20865;SDS011;10593;48.398;10.698;2023-04-15T03:14:30;2.73;;;2.23;;
20865;SDS011;10593;48.398;10.698;2023-04-15T03:16:55;2.77;;;2.00;;
20865;SDS011;10593;48.398;10.698;2023-04-15T03:19:23;2.13;;;2.00;;
20865;SDS011;10593;48.398;10.698;2023-04-15T03:21:49;1.90;;;1.80;;
20865;SDS011;10593;48.398;10.698;2023-04-15T03:24:14;2.00;;;1.90;;
20865;SDS011;10593;48.398;10.698;2023-04-15T03:26:40;2.30;;;2.10;;
20865;SDS011;10593;48.398;10.698;2023-04-15T03:29:06;2.17;;;2.07;;
20865;SDS011;10593;48.398;10.698;2023-04-15T03:31:31;2.40;;;2.20;;
20865;SDS011;10593;48.398;10.698;2023-04-15T03:33:57;2.40;;;2.20;;
20865;SDS011;10593;48.398;10.698;2023-04-15T03:36:23;2.10;;;2.00;;
20865;SDS011;10593;48.398;10.698;2023-04-15T03:38:48;2.60;;;2.40;;
20865;SDS011;10593;48.398;10.698;2023-04-15T03:41:14;2.20;;;2.10;;
20865;SDS011;10593;48.398;10.698;2023-04-15T03:43:40;2.00;;;1.90;;
20865;SDS011;10593;48.398;10.698;2023-04-15T03:46:05;2.70;;;2.30;;
20865;SDS011;10593;48.398;10.698;2023-04-15T03:48:31;3.17;;;2.37;;
20865;SDS011;10593;48.398;10.698;2023-04-15T03:50:57;2.43;;;2.10;;
20865;SDS011;10593;48.398;10.698;2023-04-15T03:53:22;3.17;;;2.90;;
20865;SDS011;10593;48.398;10.698;2023-04-15T03:55:48;2.50;;;2.30;;
20865;SDS011;10593;48.398;10.698;2023-04-15T03:58:14;2.10;;;2.00;;
20865;SDS011;10593;48.398;10.698;2023-04-15T04:00:39;2.37;;;2.20;;
20865;SDS011;10593;48.398;10.698;2023-04-15T04:03:06;3.20;;;2.90;;
20865;SDS011;10593;48.398;10.698;2023-04-15T04:05:32;2.53;;;2.33;;
20865;SDS011;10593;48.398;10.698;2023-04-15T04:07:57;2.40;;;2.20;;
20865;SDS011;10593;48.398;10.698;2023-04-15T04:10:23;2.40;;;2.23;;
20865;SDS011;10593;48.398;10.698;2023-04-15T04:12:49;2.17;;;2.07;;
20865;SDS011;10593;48.398;10.698;2023-04-15T04:15:15;2.20;;;2.00;;
20865;SDS011;10593;48.398;10.698;2023-04-15T04:17:40;2.50;;;2.30;;
20865;SDS011;10593;48.398;10.698;2023-04-15T04:20:06;3.47;;;2.20;;
20865;SDS011;10593;48.398;10.698;2023-04-15T04:22:39;3.37;;;2.30;;
20865;SDS011;10593;48.398;10.698;2023-04-15T04:25:05;2.10;;;1.80;;
20865;SDS011;10593;48.398;10.698;2023-04-15T04:27:32;2.73;;;2.23;;
20865;SDS011;10593;48.398;10.698;2023-04-15T04:29:58;3.80;;;2.40;;
20865;SDS011;10593;48.398;10.698;2023-04-15T04:32:25;2.40;;;2.17;;
20865;SDS011;10593;48.398;10.698;2023-04-15T04:34:50;2.27;;;2.07;;
20865;SDS011;10593;48.398;10.698;2023-04-15T04:37:16;2.43;;;2.30;;
20865;SDS011;10593;48.398;10.698;2023-04-15T04:39:41;3.07;;;2.43;;
20865;SDS011;10593;48.398;10.698;2023-04-15T04:42:07;2.20;;;2.10;;
20865;SDS011;10593;48.398;10.698;2023-04-15T04:44:33;3.23;;;2.50;;
20865;SDS011;10593;48.398;10.698;2023-04-15T04:46:59;2.57;;;2.23;;
20865;SDS011;10593;48.398;10.698;2023-04-15T04:49:24;2.77;;;2.30;;
20865;SDS011;10593;48.398;10.698;2023-04-15T04:51:50;2.20;;;2.00;;
20865;SDS011;10593;48.398;10.698;2023-04-15T04:54:16;4.00;;;2.73;;
20865;SDS011;10593;48.398;10.698;2023-04-15T04:56:42;3.57;;;2.23;;
20865;SDS011;10593;48.398;10.698;2023-04-15T04:59:07;2.70;;;2.50;;
20865;SDS011;10593;48.398;10.698;2023-04-15T05:01:33;3.27;;;2.50;;
20865;SDS011;10593;48.398;10.698;2023-04-15T05:03:59;2.40;;;2.20;;
20865;SDS011;10593;48.398;10.698;2023-04-15T05:06:25;2.80;;;2.60;;
20865;SDS011;10593;48.398;10.698;2023-04-15T05:08:51;2.87;;;2.60;;
20865;SDS011;10593;48.398;10.698;2023-04-15T05:11:17;2.50;;;2.20;;
20865;SDS011;10593;48.398;10.698;2023-04-15T05:13:42;2.13;;;1.93;;
20865;SDS011;10593;48.398;10.698;2023-04-15T05:16:08;2.50;;;2.30;;
20865;SDS011;10593;48.398;10.698;2023-04-15T05:18:34;3.00;;;2.43;;
20865;SDS011;10593;48.398;10.698;2023-04-15T05:21:00;2.83;;;2.43;;
20865;SDS011;10593;48.398;10.698;2023-04-15T05:23:26;2.73;;;2.23;;
20865;SDS011;10593;48.398;10.698;2023-04-15T05:25:52;3.47;;;2.50;;
20865;SDS011;10593;48.398;10.698;2023-04-15T05:28:18;2.50;;;2.30;;
20865;SDS011;10593;48.398;10.698;2023-04-15T05:30:43;2.60;;;2.40;;
20865;SDS011;10593;48.398;10.698;2023-04-15T05:33:09;3.20;;;2.10;;
20865;SDS011;10593;48.398;10.698;2023-04-15T05:35:35;3.87;;;2.30;;
20865;SDS011;10593;48.398;10.698;2023-04-15T05:38:01;2.87;;;2.07;;
20865;SDS011;10593;48.398;10.698;2023-04-15T05:40:27;2.77;;;2.33;;
20865;SDS011;10593;48.398;10.698;2023-04-15T05:42:54;2.50;;;2.30;;
20865;SDS011;10593;48.398;10.698;2023-04-15T05:45:20;2.70;;;2.40;;
20865;SDS011;10593;48.398;10.698;2023-04-15T05:47:46;3.87;;;2.33;;
20865;SDS011;10593;48.398;10.698;2023-04-15T05:50:14;2.60;;;1.80;;
20865;SDS011;10593;48.398;10.698;2023-04-15T05:52:40;3.47;;;2.10;;
20865;SDS011;10593;48.398;10.698;2023-04-15T05:55:05;2.30;;;2.10;;
20865;SDS011;10593;48.398;10.698;2023-04-15T05:57:31;4.23;;;2.30;;
20865;SDS011;10593;48.398;10.698;2023-04-15T05:59:57;2.70;;;2.47;;
20865;SDS011;10593;48.398;10.698;2023-04-15T06:02:23;2.20;;;2.00;;
20865;SDS011;10593;48.398;10.698;2023-04-15T06:04:48;2.50;;;2.27;;
20865;SDS011;10593;48.398;10.698;2023-04-15T06:07:14;3.50;;;2.60;;
20865;SDS011;10593;48.398;10.698;2023-04-15T06:09:40;2.30;;;2.10;;
20865;SDS011;10593;48.398;10.698;2023-04-15T06:12:05;2.20;;;2.00;;
20865;SDS011;10593;48.398;10.698;2023-04-15T06:14:36;3.50;;;2.33;;
20865;SDS011;10593;48.398;10.698;2023-04-15T06:17:05;2.77;;;2.10;;
20865;SDS011;10593;48.398;10.698;2023-04-15T06:19:31;2.50;;;2.30;;
20865;SDS011;10593;48.398;10.698;2023-04-15T06:21:57;3.07;;;2.70;;
20865;SDS011;10593;48.398;10.698;2023-04-15T06:24:23;3.13;;;2.53;;
20865;SDS011;10593;48.398;10.698;2023-04-15T06:26:49;3.93;;;3.00;;
20865;SDS011;10593;48.398;10.698;2023-04-15T06:29:15;4.00;;;3.40;;
20865;SDS011;10593;48.398;10.698;2023-04-15T06:31:40;3.83;;;3.13;;
20865;SDS011;10593;48.398;10.698;2023-04-15T06:34:06;4.70;;;2.93;;
20865;SDS011;10593;48.398;10.698;2023-04-15T06:36:32;2.70;;;2.50;;
20865;SDS011;10593;48.398;10.698;2023-04-15T06:38:57;3.70;;;2.47;;
20865;SDS011;10593;48.398;10.698;2023-04-15T06:41:23;2.13;;;1.93;;
20865;SDS011;10593;48.398;10.698;2023-04-15T06:43:49;2.50;;;1.90;;
20865;SDS011;10593;48.398;10.698;2023-04-15T06:46:15;2.00;;;1.90;;
20865;SDS011;10593;48.398;10.698;2023-04-15T06:48:41;3.87;;;1.63;;
20865;SDS011;10593;48.398;10.698;2023-04-15T06:51:06;3.83;;;2.33;;
20865;SDS011;10593;48.398;10.698;2023-04-15T06:53:32;2.07;;;1.93;;
20865;SDS011;10593;48.398;10.698;2023-04-15T06:55:59;2.33;;;2.07;;
20865;SDS011;10593;48.398;10.698;2023-04-15T06:58:25;2.50;;;2.20;;
20865;SDS011;10593;48.398;10.698;2023-04-15T07:00:51;2.30;;;2.10;;
20865;SDS011;10593;48.398;10.698;2023-04-15T07:03:17;2.50;;;2.30;;
20865;SDS011;10593;48.398;10.698;2023-04-15T07:05:43;2.60;;;2.40;;
20865;SDS011;10593;48.398;10.698;2023-04-15T07:08:09;2.40;;;2.20;;
20865;SDS011;10593;48.398;10.698;2023-04-15T07:10:34;2.77;;;1.90;;
20865;SDS011;10593;48.398;10.698;2023-04-15T07:13:00;2.20;;;1.60;;
20865;SDS011;10593;48.398;10.698;2023-04-15T07:15:26;1.90;;;1.70;;
20865;SDS011;10593;48.398;10.698;2023-04-15T07:17:52;2.93;;;1.80;;
20865;SDS011;10593;48.398;10.698;2023-04-15T07:20:18;1.53;;;1.20;;
20865;SDS011;10593;48.398;10.698;2023-04-15T07:22:44;2.63;;;2.20;;
20865;SDS011;10593;48.398;10.698;2023-04-15T07:25:09;3.93;;;3.50;;
20865;SDS011;10593;48.398;10.698;2023-04-15T07:27:35;2.53;;;2.33;;
20865;SDS011;10593;48.398;10.698;2023-04-15T07:30:01;2.23;;;2.03;;
20865;SDS011;10593;48.398;10.698;2023-04-15T07:32:27;1.80;;;1.70;;
20865;SDS011;10593;48.398;10.698;2023-04-15T07:34:52;1.97;;;1.70;;
20865;SDS011;10593;48.398;10.698;2023-04-15T07:37:18;1.40;;;1.30;;
20865;SDS011;10593;48.398;10.698;2023-04-15T07:39:44;1.70;;;1.50;;
20865;SDS011;10593;48.398;10.698;2023-04-15T07:42:09;2.43;;;1.50;;
20865;SDS011;10593;48.398;10.698;2023-04-15T07:44:35;1.97;;;1.77;;
20865;SDS011;10593;48.398;10.698;2023-04-15T07:47:01;2.73;;;2.07;;
20865;SDS011;10593;48.398;10.698;2023-04-15T07:49:28;3.33;;;1.90;;
20865;SDS011;10593;48.398;10.698;2023-04-15T07:51:54;1.83;;;1.57;;
20865;SDS011;10593;48.398;10.698;2023-04-15T07:54:23;1.90;;;1.80;;
20865;SDS011;10593;48.398;10.698;2023-04-15T07:56:49;2.30;;;1.60;;
20865;SDS011;10593;48.398;10.698;2023-04-15T07:59:16;2.33;;;1.77;;
20865;SDS011;10593;48.398;10.698;2023-04-15T08:01:42;2.20;;;1.73;;
20865;SDS011;10593;48.398;10.698;2023-04-15T08:04:09;1.90;;;1.60;;
20865;SDS011;10593;48.398;10.698;2023-04-15T08:06:34;1.63;;;1.53;;
20865;SDS011;10593;48.398;10.698;2023-04-15T08:09:03;2.03;;;1.87;;
20865;SDS011;10593;48.398;10.698;2023-04-15T08:11:30;1.60;;;1.50;;
20865;SDS011;10593;48.398;10.698;2023-04-15T08:13:56;2.50;;;1.80;;
20865;SDS011;10593;48.398;10.698;2023-04-15T08:16:22;2.43;;;1.57;;
20865;SDS011;10593;48.398;10.698;2023-04-15T08:18:53;2.40;;;1.93;;
20865;SDS011;10593;48.398;10.698;2023-04-15T08:21:21;1.80;;;1.70;;
20865;SDS011;10593;48.398;10.698;2023-04-15T08:23:48;2.27;;;1.97;;
20865;SDS011;10593;48.398;10.698;2023-04-15T08:26:15;2.43;;;1.70;;
20865;SDS011;10593;48.398;10.698;2023-04-15T08:28:42;1.90;;;1.53;;
20865;SDS011;10593;48.398;10.698;2023-04-15T08:31:10;2.33;;;2.13;;
20865;SDS011;10593;48.398;10.698;2023-04-15T08:33:37;1.97;;;1.67;;
20865;SDS011;10593;48.398;10.698;2023-04-15T08:36:03;1.67;;;1.57;;
20865;SDS011;10593;48.398;10.698;2023-04-15T08:38:30;2.43;;;1.67;;
20865;SDS011;10593;48.398;10.698;2023-04-15T08:40:56;2.00;;;1.90;;
20865;SDS011;10593;48.398;10.698;2023-04-15T08:43:27;2.20;;;2.00;;
20865;SDS011;10593;48.398;10.698;2023-04-15T08:45:59;1.97;;;1.87;;
20865;SDS011;10593;48.398;10.698;2023-04-15T08:48:28;2.10;;;1.90;;
20865;SDS011;10593;48.398;10.698;2023-04-15T08:50:57;2.43;;;1.80;;
20865;SDS011;10593;48.398;10.698;2023-04-15T08:53:23;2.60;;;1.70;;
20865;SDS011;10593;48.398;10.698;2023-04-15T08:55:50;2.90;;;2.60;;
20865;SDS011;10593;48.398;10.698;2023-04-15T08:58:19;2.57;;;2.37;;
20865;SDS011;10593;48.398;10.698;2023-04-15T09:00:44;4.93;;;2.03;;
20865;SDS011;10593;48.398;10.698;2023-04-15T09:03:11;2.13;;;1.73;;
20865;SDS011;10593;48.398;10.698;2023-04-15T09:05:37;2.20;;;2.10;;
20865;SDS011;10593;48.398;10.698;2023-04-15T09:08:03;1.90;;;1.80;;
20865;SDS011;10593;48.398;10.698;2023-04-15T09:10:30;2.60;;;1.80;;
20865;SDS011;10593;48.398;10.698;2023-04-15T09:12:59;3.77;;;1.87;;
20865;SDS011;10593;48.398;10.698;2023-04-15T09:15:26;2.40;;;2.20;;
20865;SDS011;10593;48.398;10.698;2023-04-15T09:17:53;2.50;;;2.10;;
20865;SDS011;10593;48.398;10.698;2023-04-15T09:20:20;2.43;;;2.23;;
20865;SDS011;10593;48.398;10.698;2023-04-15T09:22:47;2.30;;;1.97;;
20865;SDS011;10593;48.398;10.698;2023-04-15T09:27:47;2.60;;;2.40;;
20865;SDS011;10593;48.398;10.698;2023-04-15T09:30:17;2.27;;;2.00;;
20865;SDS011;10593;48.398;10.698;2023-04-15T09:32:59;2.73;;;2.10;;
20865;SDS011;10593;48.398;10.698;2023-04-15T09:35:29;2.33;;;2.07;;
20865;SDS011;10593;48.398;10.698;2023-04-15T09:38:08;2.97;;;2.10;;
20865;SDS011;10593;48.398;10.698;2023-04-15T09:40:38;2.50;;;1.80;;
20865;SDS011;10593;48.398;10.698;2023-04-15T09:43:06;2.33;;;2.13;;
20865;SDS011;10593;48.398;10.698;2023-04-15T09:45:35;2.70;;;2.50;;
20865;SDS011;10593;48.398;10.698;2023-04-15T09:48:17;2.00;;;1.90;;
20865;SDS011;10593;48.398;10.698;2023-04-15T09:50:49;2.00;;;1.90;;
20865;SDS011;10593;48.398;10.698;2023-04-15T09:53:20;2.13;;;2.03;;
20865;SDS011;10593;48.398;10.698;2023-04-15T09:58:20;2.00;;;1.90;;
20865;SDS011;10593;48.398;10.698;2023-04-15T10:00:52;2.40;;;2.20;;
20865;SDS011;10593;48.398;10.698;2023-04-15T10:03:24;2.60;;;2.40;;
20865;SDS011;10593;48.398;10.698;2023-04-15T10:05:53;2.73;;;2.53;;
20865;SDS011;10593;48.398;10.698;2023-04-15T10:08:26;2.80;;;2.30;;
20865;SDS011;10593;48.398;10.698;2023-04-15T10:10:54;2.67;;;2.47;;
20865;SDS011;10593;48.398;10.698;2023-04-15T10:13:21;2.30;;;2.10;;
20865;SDS011;10593;48.398;10.698;2023-04-15T10:15:50;2.80;;;2.10;;
20865;SDS011;10593;48.398;10.698;2023-04-15T10:18:43;2.60;;;2.30;;
20865;SDS011;10593;48.398;10.698;2023-04-15T10:21:11;3.33;;;2.30;;
20865;SDS011;10593;48.398;10.698;2023-04-15T10:23:40;2.03;;;1.93;;
20865;SDS011;10593;48.398;10.698;2023-04-15T10:26:06;2.87;;;2.60;;
20865;SDS011;10593;48.398;10.698;2023-04-15T10:28:37;2.97;;;2.30;;
20865;SDS011;10593;48.398;10.698;2023-04-15T10:31:03;3.67;;;2.10;;
20865;SDS011;10593;48.398;10.698;2023-04-15T10:33:30;2.90;;;2.70;;
20865;SDS011;10593;48.398;10.698;2023-04-15T10:35:57;2.60;;;2.40;;
20865;SDS011;10593;48.398;10.698;2023-04-15T10:38:38;2.20;;;2.00;;
20865;SDS011;10593;48.398;10.698;2023-04-15T10:41:22;2.07;;;1.87;;
20865;SDS011;10593;48.398;10.698;2023-04-15T10:46:18;2.47;;;2.27;;
20865;SDS011;10593;48.398;10.698;2023-04-15T10:48:48;2.70;;;2.50;;
20865;SDS011;10593;48.398;10.698;2023-04-15T10:51:30;2.53;;;2.33;;
20865;SDS011;10593;48.398;10.698;2023-04-15T10:53:59;2.07;;;1.93;;
20865;SDS011;10593;48.398;10.698;2023-04-15T10:56:26;2.07;;;1.93;;
20865;SDS011;10593;48.398;10.698;2023-04-15T10:58:53;2.50;;;2.00;;
20865;SDS011;10593;48.398;10.698;2023-04-15T11:01:20;2.00;;;1.90;;
20865;SDS011;10593;48.398;10.698;2023-04-15T11:03:47;2.00;;;1.90;;
20865;SDS011;10593;48.398;10.698;2023-04-15T11:06:13;2.03;;;1.83;;
20865;SDS011;10593;48.398;10.698;2023-04-15T11:09:14;2.50;;;2.10;;
20865;SDS011;10593;48.398;10.698;2023-04-15T11:14:38;2.80;;;1.80;;
20865;SDS011;10593;48.398;10.698;2023-04-15T11:17:05;1.70;;;1.60;;
20865;SDS011;10593;48.398;10.698;2023-04-15T11:19:35;2.63;;;2.03;;
20865;SDS011;10593;48.398;10.698;2023-04-15T11:22:06;3.07;;;2.00;;
20865;SDS011;10593;48.398;10.698;2023-04-15T11:24:36;3.80;;;1.63;;
20865;SDS011;10593;48.398;10.698;2023-04-15T11:27:21;1.73;;;1.63;;
20865;SDS011;10593;48.398;10.698;2023-04-15T11:29:47;1.70;;;1.60;;
20865;SDS011;10593;48.398;10.698;2023-04-15T11:32:13;2.13;;;2.03;;
20865;SDS011;10593;48.398;10.698;2023-04-15T11:34:39;2.17;;;1.77;;
20865;SDS011;10593;48.398;10.698;2023-04-15T11:37:05;3.57;;;1.70;;
20865;SDS011;10593;48.398;10.698;2023-04-15T11:39:31;1.80;;;1.30;;
20865;SDS011;10593;48.398;10.698;2023-04-15T11:41:57;1.47;;;1.33;;
20865;SDS011;10593;48.398;10.698;2023-04-15T11:44:23;1.70;;;1.13;;
20865;SDS011;10593;48.398;10.698;2023-04-15T11:46:49;2.77;;;1.60;;
20865;SDS011;10593;48.398;10.698;2023-04-15T11:49:27;1.87;;;1.30;;
20865;SDS011;10593;48.398;10.698;2023-04-15T11:51:55;1.30;;;1.20;;
20865;SDS011;10593;48.398;10.698;2023-04-15T11:54:20;1.13;;;1.13;;
20865;SDS011;10593;48.398;10.698;2023-04-15T11:56:52;1.30;;;1.20;;
20865;SDS011;10593;48.398;10.698;2023-04-15T11:59:18;1.17;;;1.07;;
20865;SDS011;10593;48.398;10.698;2023-04-15T12:01:44;1.83;;;1.23;;
20865;SDS011;10593;48.398;10.698;2023-04-15T12:04:12;1.20;;;1.10;;
20865;SDS011;10593;48.398;10.698;2023-04-15T12:06:44;1.50;;;1.40;;
20865;SDS011;10593;48.398;10.698;2023-04-15T12:09:11;1.60;;;1.30;;
20865;SDS011;10593;48.398;10.698;2023-04-15T12:11:49;1.50;;;1.40;;
20865;SDS011;10593;48.398;10.698;2023-04-15T12:14:25;1.20;;;1.20;;
20865;SDS011;10593;48.398;10.698;2023-04-15T12:16:54;1.70;;;1.60;;
20865;SDS011;10593;48.398;10.698;2023-04-15T12:19:36;2.17;;;2.00;;
20865;SDS011;10593;48.398;10.698;2023-04-15T12:22:15;2.03;;;1.80;;
20865;SDS011;10593;48.398;10.698;2023-04-15T12:24:42;1.67;;;1.57;;
20865;SDS011;10593;48.398;10.698;2023-04-15T12:27:12;1.80;;;1.60;;
20865;SDS011;10593;48.398;10.698;2023-04-15T12:29:40;2.00;;;1.90;;
20865;SDS011;10593;48.398;10.698;2023-04-15T12:32:08;2.77;;;1.87;;
20865;SDS011;10593;48.398;10.698;2023-04-15T12:34:39;1.97;;;1.87;;
20865;SDS011;10593;48.398;10.698;2023-04-15T12:37:10;2.30;;;2.10;;
20865;SDS011;10593;48.398;10.698;2023-04-15T12:39:40;2.97;;;2.00;;
20865;SDS011;10593;48.398;10.698;2023-04-15T12:42:08;2.13;;;1.90;;
20865;SDS011;10593;48.398;10.698;2023-04-15T12:44:36;1.80;;;1.70;;
20865;SDS011;10593;48.398;10.698;2023-04-15T12:47:02;1.60;;;1.50;;
20865;SDS011;10593;48.398;10.698;2023-04-15T12:49:29;1.37;;;1.27;;
20865;SDS011;10593;48.398;10.698;2023-04-15T12:51:57;1.73;;;1.20;;
20865;SDS011;10593;48.398;10.698;2023-04-15T12:54:25;1.77;;;1.67;;
20865;SDS011;10593;48.398;10.698;2023-04-15T12:56:51;1.67;;;1.50;;
20865;SDS011;10593;48.398;10.698;2023-04-15T12:59:18;2.50;;;1.50;;
20865;SDS011;10593;48.398;10.698;2023-04-15T13:01:44;1.60;;;1.30;;
20865;SDS011;10593;48.398;10.698;2023-04-15T13:04:12;1.93;;;1.27;;
20865;SDS011;10593;48.398;10.698;2023-04-15T13:06:38;3.40;;;1.50;;
20865;SDS011;10593;48.398;10.698;2023-04-15T13:09:03;1.70;;;1.33;;
20865;SDS011;10593;48.398;10.698;2023-04-15T13:11:30;1.63;;;1.47;;
20865;SDS011;10593;48.398;10.698;2023-04-15T13:13:58;2.07;;;1.47;;
20865;SDS011;10593;48.398;10.698;2023-04-15T13:16:29;1.73;;;1.60;;
20865;SDS011;10593;48.398;10.698;2023-04-15T13:18:56;1.40;;;1.30;;
20865;SDS011;10593;48.398;10.698;2023-04-15T13:21:23;2.07;;;1.60;;
20865;SDS011;10593;48.398;10.698;2023-04-15T13:23:49;2.27;;;1.60;;
20865;SDS011;10593;48.398;10.698;2023-04-15T13:26:16;2.33;;;1.60;;
20865;SDS011;10593;48.398;10.698;2023-04-15T13:28:42;1.40;;;1.30;;
20865;SDS011;10593;48.398;10.698;2023-04-15T13:31:07;2.37;;;1.60;;
20865;SDS011;10593;48.398;10.698;2023-04-15T13:33:33;1.00;;;0.87;;
20865;SDS011;10593;48.398;10.698;2023-04-15T13:35:59;1.23;;;1.20;;
20865;SDS011;10593;48.398;10.698;2023-04-15T13:38:24;2.00;;;1.23;;
20865;SDS011;10593;48.398;10.698;2023-04-15T13:40:50;1.27;;;1.07;;
20865;SDS011;10593;48.398;10.698;2023-04-15T13:43:16;1.20;;;1.10;;
20865;SDS011;10593;48.398;10.698;2023-04-15T13:45:42;1.23;;;1.03;;
20865;SDS011;10593;48.398;10.698;2023-04-15T13:48:11;1.70;;;1.47;;
20865;SDS011;10593;48.398;10.698;2023-04-15T13:50:37;1.50;;;1.20;;
20865;SDS011;10593;48.398;10.698;2023-04-15T13:53:02;0.83;;;0.80;;
20865;SDS011;10593;48.398;10.698;2023-04-15T13:55:28;1.30;;;1.20;;
20865;SDS011;10593;48.398;10.698;2023-04-15T13:57:55;0.87;;;0.87;;
20865;SDS011;10593;48.398;10.698;2023-04-15T14:00:20;0.83;;;0.83;;
20865;SDS011;10593;48.398;10.698;2023-04-15T14:02:46;2.00;;;1.10;;
20865;SDS011;10593;48.398;10.698;2023-04-15T14:05:12;1.73;;;1.00;;
20865;SDS011;10593;48.398;10.698;2023-04-15T14:07:38;0.90;;;0.90;;
20865;SDS011;10593;48.398;10.698;2023-04-15T14:10:04;1.83;;;0.90;;
20865;SDS011;10593;48.398;10.698;2023-04-15T14:12:31;1.27;;;1.17;;
20865;SDS011;10593;48.398;10.698;2023-04-15T14:14:57;1.53;;;0.90;;
20865;SDS011;10593;48.398;10.698;2023-04-15T14:17:26;1.20;;;1.10;;
20865;SDS011;10593;48.398;10.698;2023-04-15T14:19:51;1.43;;;1.10;;
20865;SDS011;10593;48.398;10.698;2023-04-15T14:22:17;1.27;;;1.17;;
20865;SDS011;10593;48.398;10.698;2023-04-15T14:24:43;1.30;;;1.20;;
20865;SDS011;10593;48.398;10.698;2023-04-15T14:27:09;0.97;;;0.97;;
20865;SDS011;10593;48.398;10.698;2023-04-15T14:29:36;2.67;;;1.50;;
20865;SDS011;10593;48.398;10.698;2023-04-15T14:32:02;2.77;;;1.20;;
20865;SDS011;10593;48.398;10.698;2023-04-15T14:34:28;1.40;;;1.20;;
20865;SDS011;10593;48.398;10.698;2023-04-15T14:36:54;1.10;;;0.97;;
20865;SDS011;10593;48.398;10.698;2023-04-15T14:39:20;1.13;;;1.03;;
20865;SDS011;10593;48.398;10.698;2023-04-15T14:41:46;0.70;;;0.70;;
20865;SDS011;10593;48.398;10.698;2023-04-15T14:44:11;1.20;;;1.10;;